Time;durP1;ratioP1;P1;durP2;ratioP2;P2;SDS_P1;SDS_P2;PMS_P1;PMS_P2;Temp;Humidity;BMP_temperature;BMP_pressure;BME280_temperature;BME280_humidity;BME280_pressure;Samples;Min_cycle;Max_cycle;Signal;HPM_P1;HPM_P2
2023/10/20 00:00:37;;;;;;;8.90;4.30;;;;;;;12.79;66.69;99954.77;107545;1253;111142;-61
2023/10/20 00:03:25;;;;;;;12.20;4.30;;;;;;;12.77;66.52;99941.38;107609;1253;111658;-62
2023/10/20 00:05:54;;;;;;;9.80;3.80;;;;;;;12.78;66.52;99935.66;107665;1253;106303;-61
2023/10/20 00:08:23;;;;;;;6.90;3.90;;;;;;;12.81;66.48;99935.53;107577;1252;97828;-62
2023/10/20 00:10:52;;;;;;;8.50;3.70;;;;;;;12.83;66.57;99928.55;107533;1252;99004;-61
2023/10/20 00:13:21;;;;;;;6.00;3.70;;;;;;;12.84;66.51;99932.63;107571;1253;110930;-62
2023/10/20 00:15:50;;;;;;;11.00;4.80;;;;;;;12.83;66.55;99932.90;107616;1253;109235;-61
2023/10/20 00:18:18;;;;;;;10.60;4.20;;;;;;;12.83;66.56;99929.36;107582;1251;107792;-61
2023/10/20 00:20:46;;;;;;;14.30;4.40;;;;;;;12.82;66.61;99919.85;107574;1253;97886;-61
2023/10/20 00:23:15;;;;;;;10.10;4.00;;;;;;;12.82;66.36;99926.89;107569;1252;99531;-62
2023/10/20 00:25:43;;;;;;;6.50;3.90;;;;;;;12.83;66.61;99926.83;107552;1253;111243;-62
2023/10/20 00:28:11;;;;;;;6.60;4.10;;;;;;;12.84;66.62;99932.77;107538;1253;110415;-62
2023/10/20 00:30:40;;;;;;;13.30;4.00;;;;;;;12.86;66.72;99937.35;107480;1253;109142;-61
2023/10/20 00:33:08;;;;;;;7.80;4.10;;;;;;;12.87;66.74;99935.94;107491;1255;97855;-62
2023/10/20 00:35:37;;;;;;;11.50;4.10;;;;;;;12.84;66.81;99945.10;107506;1253;97935;-62
2023/10/20 00:38:06;;;;;;;6.80;3.90;;;;;;;12.77;66.66;99942.27;107599;1253;111460;-62
2023/10/20 00:40:34;;;;;;;9.50;4.00;;;;;;;12.77;66.99;99948.33;107595;1251;109782;-63
2023/10/20 00:43:03;;;;;;;6.60;3.90;;;;;;;12.74;66.92;99948.04;107526;1251;107355;-62
2023/10/20 00:45:31;;;;;;;6.80;3.70;;;;;;;12.71;66.95;99959.70;107565;1251;97908;-61
2023/10/20 00:48:00;;;;;;;13.20;4.40;;;;;;;12.68;66.96;99947.94;107561;1253;98290;-62
2023/10/20 00:50:30;;;;;;;12.70;3.50;;;;;;;12.71;67.03;99942.97;107447;1253;112178;-62
2023/10/20 00:53:00;;;;;;;17.60;4.20;;;;;;;12.72;67.04;99941.39;107557;1251;109852;-62
2023/10/20 00:55:30;;;;;;;7.70;4.00;;;;;;;12.73;67.18;99936.56;107635;1255;107718;-61
2023/10/20 00:57:59;;;;;;;17.10;4.60;;;;;;;12.73;66.97;99947.20;107460;1257;97837;-63
2023/10/20 01:00:28;;;;;;;12.60;3.80;;;;;;;12.73;66.96;99949.20;107613;1253;97720;-62
2023/10/20 01:02:57;;;;;;;11.50;3.70;;;;;;;12.68;66.90;99944.09;107618;1251;112869;-62
2023/10/20 01:05:27;;;;;;;9.60;3.90;;;;;;;12.66;66.96;99943.65;107603;1252;108742;-61
2023/10/20 01:07:56;;;;;;;10.20;3.80;;;;;;;12.66;66.91;99940.91;107568;1253;108051;-62
2023/10/20 01:10:24;;;;;;;14.00;4.00;;;;;;;12.65;67.27;99954.36;107519;1251;97821;-62
2023/10/20 01:12:52;;;;;;;15.90;4.30;;;;;;;12.58;67.67;99947.77;107603;1251;97839;-61
2023/10/20 01:15:21;;;;;;;10.40;4.00;;;;;;;12.53;67.34;99940.53;107613;1253;111139;-62
2023/10/20 01:17:49;;;;;;;8.10;3.90;;;;;;;12.55;67.46;99942.84;107629;1251;109294;-61
2023/10/20 01:20:18;;;;;;;12.80;3.70;;;;;;;12.58;67.18;99937.02;107641;1251;108751;-62
2023/10/20 01:22:46;;;;;;;11.50;3.90;;;;;;;12.59;67.26;99940.24;107604;1253;97817;-61
2023/10/20 01:25:15;;;;;;;10.30;3.80;;;;;;;12.61;67.38;99942.17;107560;1257;98463;-61
2023/10/20 01:27:43;;;;;;;7.90;3.70;;;;;;;12.61;67.26;99947.94;107606;1253;110470;-61
2023/10/20 01:30:12;;;;;;;11.80;3.70;;;;;;;12.60;67.30;99948.79;107522;1254;109448;-61
2023/10/20 01:32:41;;;;;;;9.00;3.50;;;;;;;12.60;67.13;99947.73;107572;1253;108031;-62
2023/10/20 01:35:10;;;;;;;12.00;4.30;;;;;;;12.61;67.17;99934.88;107528;1253;97919;-62
2023/10/20 01:37:42;;;;;;;10.40;3.70;;;;;;;12.61;67.04;99928.23;107610;1253;99005;-61
2023/10/20 01:40:12;;;;;;;15.40;4.00;;;;;;;12.61;67.16;99926.02;107639;1253;110800;-61
2023/10/20 01:42:40;;;;;;;8.30;3.80;;;;;;;12.63;67.22;99932.63;107502;1254;109985;-63
2023/10/20 01:45:09;;;;;;;24.70;4.90;;;;;;;12.64;67.02;99924.60;107525;1253;107687;-62
2023/10/20 01:47:38;;;;;;;9.70;4.10;;;;;;;12.65;66.96;99922.83;107518;1253;97816;-62
2023/10/20 01:50:07;;;;;;;24.10;5.30;;;;;;;12.67;66.94;99923.69;107591;1251;98347;-62
2023/10/20 01:52:37;;;;;;;15.40;4.70;;;;;;;12.70;66.81;99916.84;107562;1251;111466;-62
2023/10/20 01:55:06;;;;;;;18.50;4.70;;;;;;;12.70;67.07;99923.27;107609;1253;108794;-62
2023/10/20 01:57:35;;;;;;;11.30;4.50;;;;;;;12.69;66.90;99924.59;107577;1254;106981;-62
2023/10/20 02:00:08;;;;;;;18.00;5.00;;;;;;;12.68;66.68;99921.75;107521;1257;97817;-62
2023/10/20 02:02:42;;;;;;;14.40;5.70;;;;;;;12.65;66.31;99923.27;107572;1251;98367;-62
2023/10/20 02:05:12;;;;;;;10.40;4.10;;;;;;;12.61;66.32;99918.33;107547;1253;111559;-62
2023/10/20 02:07:42;;;;;;;12.50;4.60;;;;;;;12.58;66.17;99911.45;107522;1256;108474;-61
2023/10/20 02:10:10;;;;;;;16.90;4.90;;;;;;;12.55;66.15;99902.92;107638;1255;108537;-62
2023/10/20 02:12:39;;;;;;;20.00;5.60;;;;;;;12.50;66.08;99900.23;107523;1251;98512;-62
2023/10/20 02:15:08;;;;;;;12.10;4.90;;;;;;;12.45;65.93;99900.23;107549;1251;97740;-62
2023/10/20 02:17:36;;;;;;;16.10;5.10;;;;;;;12.43;65.83;99897.80;107661;1256;111755;-63
2023/10/20 02:20:06;;;;;;;12.30;4.30;;;;;;;12.40;65.64;99896.54;107622;1251;108859;-62
2023/10/20 02:22:35;;;;;;;18.70;5.60;;;;;;;12.35;65.59;99898.12;107535;1257;108582;-61
2023/10/20 02:25:04;;;;;;;12.80;4.90;;;;;;;12.33;65.62;99898.70;107512;1257;97740;-62
2023/10/20 02:27:32;;;;;;;20.30;5.30;;;;;;;12.30;65.58;99897.11;107770;1255;97825;-61
2023/10/20 02:30:03;;;;;;;9.20;4.60;;;;;;;12.28;65.55;99892.98;107565;1254;111866;-61
2023/10/20 02:32:31;;;;;;;7.40;4.10;;;;;;;12.27;65.55;99886.66;107632;1256;109872;-62
2023/10/20 02:35:01;;;;;;;11.90;4.00;;;;;;;12.23;65.25;99881.30;107595;1251;108578;-63
2023/10/20 02:37:29;;;;;;;12.20;4.70;;;;;;;12.21;65.24;99875.00;107541;1251;97920;-61
2023/10/20 02:39:58;;;;;;;14.80;4.00;;;;;;;12.22;65.31;99876.34;107588;1256;97805;-62
2023/10/20 02:42:28;;;;;;;9.80;4.40;;;;;;;12.23;65.33;99871.04;107615;1254;111569;-62
2023/10/20 02:44:57;;;;;;;9.50;4.10;;;;;;;12.25;65.39;99874.29;107615;1254;108791;-64
2023/10/20 02:47:25;;;;;;;7.90;4.00;;;;;;;12.24;65.39;99877.61;107576;1254;108655;-62
2023/10/20 02:49:55;;;;;;;16.20;5.10;;;;;;;12.25;65.50;99873.34;107583;1254;97823;-61
2023/10/20 02:52:25;;;;;;;14.70;4.40;;;;;;;12.27;65.56;99878.57;107735;1255;97825;-61
2023/10/20 02:54:54;;;;;;;10.80;4.80;;;;;;;12.28;65.44;99871.96;107606;1253;110703;-61
2023/10/20 02:57:23;;;;;;;10.80;4.90;;;;;;;12.30;65.40;99874.42;107523;1253;108742;-63
2023/10/20 02:59:51;;;;;;;21.90;4.20;;;;;;;12.33;65.66;99874.24;107612;1253;108145;-62
2023/10/20 03:02:22;;;;;;;16.30;4.80;;;;;;;12.38;65.82;99880.92;107539;1256;97833;-63
2023/10/20 03:04:54;;;;;;;7.80;4.60;;;;;;;12.43;65.92;99873.34;107522;1256;97914;-62
2023/10/20 03:07:27;;;;;;;11.90;4.60;;;;;;;12.46;65.97;99865.04;107642;1251;110663;-62
2023/10/20 03:09:56;;;;;;;11.10;4.40;;;;;;;12.52;66.25;99861.92;107617;1254;109244;-60
2023/10/20 03:12:24;;;;;;;10.00;4.30;;;;;;;12.54;66.40;99856.79;107464;1251;108089;-62
2023/10/20 03:14:52;;;;;;;8.60;4.60;;;;;;;12.56;66.65;99858.38;107617;1253;97919;-63
2023/10/20 03:17:21;;;;;;;11.70;3.60;;;;;;;12.58;66.49;99848.30;107620;1251;98360;-62
2023/10/20 03:19:49;;;;;;;14.20;4.70;;;;;;;12.59;66.58;99852.13;107528;1251;112082;-61
2023/10/20 03:22:17;;;;;;;15.10;4.50;;;;;;;12.60;66.87;99844.70;107629;1254;110229;-61
2023/10/20 03:24:45;;;;;;;8.00;3.40;;;;;;;12.60;67.09;99840.12;107635;1251;107183;-62
2023/10/20 03:27:13;;;;;;;9.30;4.40;;;;;;;12.62;67.11;99837.95;107608;1251;97829;-62
2023/10/20 03:29:42;;;;;;;8.40;4.30;;;;;;;12.63;67.33;99843.39;107654;1251;97710;-62
2023/10/20 03:32:11;;;;;;;9.60;3.60;;;;;;;12.65;67.60;99853.42;107673;1256;110492;-63
2023/10/20 03:34:40;;;;;;;9.80;4.20;;;;;;;12.64;67.35;99850.84;107644;1251;109698;-61
2023/10/20 03:37:08;;;;;;;14.40;4.20;;;;;;;12.63;67.38;99848.98;107562;1253;107201;-63
2023/10/20 03:39:37;;;;;;;10.40;4.40;;;;;;;12.63;67.31;99847.27;107496;1253;97827;-62
2023/10/20 03:42:07;;;;;;;12.30;4.20;;;;;;;12.62;67.22;99844.40;107647;1251;97723;-63
2023/10/20 03:44:35;;;;;;;7.60;4.10;;;;;;;12.64;67.23;99843.89;107652;1251;112136;-63
2023/10/20 03:47:05;;;;;;;15.30;7.10;;;;;;;12.66;67.31;99854.27;107577;1251;110185;-62
2023/10/20 03:49:35;;;;;;;15.30;4.10;;;;;;;12.68;67.25;99848.44;107576;1256;108612;-61
2023/10/20 03:52:06;;;;;;;6.30;3.80;;;;;;;12.70;67.28;99844.95;107594;1256;97935;-62
2023/10/20 03:54:34;;;;;;;9.20;3.90;;;;;;;12.72;67.21;99846.00;107578;1251;97759;-62
2023/10/20 03:57:03;;;;;;;9.90;4.00;;;;;;;12.74;67.42;99847.36;107622;1251;111710;-62
2023/10/20 03:59:32;;;;;;;8.60;3.80;;;;;;;12.77;67.50;99846.05;107563;1253;109971;-62
2023/10/20 04:02:01;;;;;;;12.10;3.80;;;;;;;12.78;67.36;99838.73;107605;1254;107616;-62
2023/10/20 04:04:30;;;;;;;11.10;3.50;;;;;;;12.80;67.54;99834.52;107529;1251;97817;-62
2023/10/20 04:06:58;;;;;;;7.20;3.60;;;;;;;12.80;67.28;99832.81;107495;1251;97707;-62
2023/10/20 04:09:29;;;;;;;7.20;3.60;;;;;;;12.79;67.45;99831.02;107559;1251;110733;-62
2023/10/20 04:11:57;;;;;;;14.90;4.20;;;;;;;12.79;67.53;99822.90;107553;1256;109159;-61
2023/10/20 04:14:25;;;;;;;12.30;4.00;;;;;;;12.82;67.50;99816.77;107599;1254;108285;-61
2023/10/20 04:16:54;;;;;;;12.30;3.30;;;;;;;12.84;67.49;99806.69;107563;1251;97838;-63
2023/10/20 04:19:22;;;;;;;11.20;4.00;;;;;;;12.83;67.16;99804.25;107612;1253;97945;-62
2023/10/20 04:21:51;;;;;;;11.10;3.90;;;;;;;12.83;66.87;99804.46;107591;1251;111746;-62
2023/10/20 04:24:21;;;;;;;11.70;4.70;;;;;;;12.83;66.95;99813.05;107572;1256;109944;-62
2023/10/20 04:26:50;;;;;;;20.20;5.80;;;;;;;12.81;66.60;99822.98;107555;1257;108166;-62
2023/10/20 04:54:23;;;;;;;33.90;5.90;;;;;;;12.47;66.47;99820.15;107328;1254;107481;-63
2023/10/20 04:59:39;;;;;;;7.90;4.30;;;;;;;12.45;66.19;99808.80;107633;1252;97807;-62
2023/10/20 05:02:24;;;;;;;10.30;5.00;;;;;;;12.44;66.01;99815.34;107657;1254;111881;-63
2023/10/20 05:04:52;;;;;;;18.80;5.30;;;;;;;12.44;66.15;99823.41;107627;1253;109810;-62
2023/10/20 05:07:26;;;;;;;22.20;5.00;;;;;;;12.45;65.97;99824.98;107573;1254;108282;-62
2023/10/20 05:09:54;;;;;;;14.10;5.60;;;;;;;12.46;66.00;99824.45;107628;1251;97822;-61
2023/10/20 05:12:23;;;;;;;22.40;5.80;;;;;;;12.48;66.06;99835.23;107638;1251;97762;-62
2023/10/20 05:14:51;;;;;;;12.60;4.70;;;;;;;12.50;66.29;99839.67;107686;1250;113777;-62
2023/10/20 05:17:20;;;;;;;14.40;6.10;;;;;;;12.51;66.50;99839.50;107558;1251;108724;-62
2023/10/20 05:19:49;;;;;;;35.00;6.20;;;;;;;12.53;66.39;99841.41;107576;1253;108181;-61
2023/10/20 05:22:17;;;;;;;17.40;5.60;;;;;;;12.57;66.45;99836.02;107551;1251;97865;-62
2023/10/20 05:24:45;;;;;;;13.50;5.20;;;;;;;12.61;66.57;99835.70;107589;1251;97702;-61
2023/10/20 05:27:14;;;;;;;16.00;4.70;;;;;;;12.65;66.59;99830.90;107495;1251;112189;-62
2023/10/20 05:29:42;;;;;;;22.40;4.90;;;;;;;12.72;66.60;99826.43;107710;1251;109880;-61
2023/10/20 05:32:11;;;;;;;16.10;4.50;;;;;;;12.78;66.52;99829.54;107705;1251;108214;-62
2023/10/20 05:34:39;;;;;;;19.50;4.60;;;;;;;12.85;66.41;99820.85;107538;1253;97951;-63
2023/10/20 05:37:08;;;;;;;21.60;5.30;;;;;;;12.93;66.43;99820.66;107534;1251;98450;-63
2023/10/20 05:39:37;;;;;;;26.00;4.50;;;;;;;13.02;66.43;99823.78;107651;1251;111796;-63
2023/10/20 05:42:05;;;;;;;17.30;4.20;;;;;;;13.09;66.36;99829.25;107530;1251;109246;-62
2023/10/20 05:44:34;;;;;;;16.20;4.80;;;;;;;13.17;66.30;99832.73;107477;1256;107749;-61
2023/10/20 05:47:04;;;;;;;15.50;4.30;;;;;;;13.24;66.45;99838.13;107611;1254;97880;-63
2023/10/20 05:49:32;;;;;;;14.20;4.60;;;;;;;13.33;66.45;99836.59;107674;1250;97746;-62
2023/10/20 05:52:01;;;;;;;14.40;4.90;;;;;;;13.38;66.19;99838.55;107714;1251;112213;-62
2023/10/20 05:54:30;;;;;;;16.40;5.10;;;;;;;13.45;66.15;99838.89;107552;1251;110483;-62
2023/10/20 05:56:59;;;;;;;12.80;4.50;;;;;;;13.53;66.02;99830.73;107554;1251;107363;-62
2023/10/20 05:59:27;;;;;;;10.50;4.10;;;;;;;13.60;65.78;99821.80;107593;1251;98001;-63
2023/10/20 06:01:58;;;;;;;25.40;5.90;;;;;;;13.69;65.67;99818.80;107643;1251;97723;-63
2023/10/20 06:04:27;;;;;;;18.00;4.70;;;;;;;13.78;65.44;99822.38;107554;1251;111889;-63
2023/10/20 06:06:56;;;;;;;13.80;4.80;;;;;;;13.82;65.13;99827.44;107569;1251;109638;-61
2023/10/20 06:09:25;;;;;;;23.80;5.00;;;;;;;13.86;65.09;99834.83;107595;1251;108058;-62
2023/10/20 06:11:53;;;;;;;13.80;4.10;;;;;;;13.92;64.86;99834.48;107562;1251;97842;-61
2023/10/20 06:14:26;;;;;;;11.90;5.20;;;;;;;13.96;64.53;99831.46;107484;1252;97714;-63
2023/10/20 06:16:54;;;;;;;11.80;4.70;;;;;;;14.00;64.19;99823.63;107548;1251;111748;-64
2023/10/20 06:19:23;;;;;;;9.50;4.60;;;;;;;14.03;64.00;99821.05;107565;1251;109890;-61
2023/10/20 06:21:52;;;;;;;11.70;5.20;;;;;;;14.07;63.84;99814.75;107590;1251;107527;-62
2023/10/20 06:24:21;;;;;;;8.30;4.90;;;;;;;14.11;63.67;99812.83;107573;1254;97822;-65
2023/10/20 06:26:49;;;;;;;15.10;5.70;;;;;;;14.14;63.40;99808.87;107598;1255;97909;-63
2023/10/20 06:29:27;;;;;;;15.50;5.40;;;;;;;14.18;63.17;99810.02;107535;1253;112136;-62
2023/10/20 06:34:43;;;;;;;9.50;5.30;;;;;;;14.23;62.91;99805.36;107602;1251;109488;-63
2023/10/20 06:37:24;;;;;;;10.60;4.40;;;;;;;14.24;62.64;99803.60;107571;1251;97851;-61
2023/10/20 06:39:53;;;;;;;12.70;4.90;;;;;;;14.24;62.67;99813.58;107580;1254;97711;-64
2023/10/20 06:42:22;;;;;;;13.70;4.90;;;;;;;14.25;62.77;99820.30;107584;1251;110993;-62
2023/10/20 06:44:51;;;;;;;15.30;5.50;;;;;;;14.27;62.86;99827.92;107595;1253;109246;-62
2023/10/20 06:47:21;;;;;;;13.00;5.00;;;;;;;14.31;62.89;99829.24;107605;1251;110348;-61
2023/10/20 06:49:49;;;;;;;15.40;5.00;;;;;;;14.39;62.73;99825.27;107562;1254;97760;-63
2023/10/20 06:52:18;;;;;;;19.30;5.30;;;;;;;14.48;62.55;99829.47;107717;1254;97845;-62
2023/10/20 06:54:49;;;;;;;12.60;4.50;;;;;;;14.58;62.34;99839.70;107588;1254;112889;-64
2023/10/20 06:57:37;;;;;;;14.30;5.00;;;;;;;14.73;62.31;99839.19;107684;1251;109649;-62
2023/10/20 07:00:16;;;;;;;16.30;5.20;;;;;;;14.86;62.16;99837.55;107585;1251;107155;-63
2023/10/20 07:02:45;;;;;;;13.20;5.40;;;;;;;15.03;62.02;99835.35;107624;1253;97912;-61
2023/10/20 07:05:14;;;;;;;13.30;6.10;;;;;;;15.18;61.76;99834.25;107598;1251;98360;-61
2023/10/20 07:07:43;;;;;;;13.70;6.40;;;;;;;15.28;61.13;99825.03;107628;1251;110482;-63
2023/10/20 07:10:12;;;;;;;12.50;5.40;;;;;;;15.40;61.08;99820.33;107659;1251;110210;-63
2023/10/20 07:12:40;;;;;;;12.40;5.70;;;;;;;15.51;60.83;99814.48;107558;1255;107645;-62
2023/10/20 07:15:08;;;;;;;15.90;6.00;;;;;;;15.62;60.57;99807.46;107587;1254;97862;-62
2023/10/20 07:17:37;;;;;;;17.80;5.10;;;;;;;15.73;60.27;99799.23;107650;1251;97742;-63
2023/10/20 07:20:06;;;;;;;14.80;6.00;;;;;;;15.83;60.03;99794.20;107544;1251;111006;-62
2023/10/20 07:22:35;;;;;;;8.20;4.60;;;;;;;15.89;59.93;99793.31;107561;1251;108786;-62
2023/10/20 07:25:04;;;;;;;12.80;5.10;;;;;;;15.92;59.37;99788.23;107588;1251;107693;-63
2023/10/20 07:27:32;;;;;;;12.20;4.80;;;;;;;15.92;59.26;99791.05;107580;1254;97841;-63
2023/10/20 07:30:00;;;;;;;17.60;5.90;;;;;;;15.95;59.32;99786.53;107614;1254;98362;-61
2023/10/20 07:32:29;;;;;;;15.10;5.30;;;;;;;16.00;59.19;99791.79;107674;1253;110907;-63
2023/10/20 07:34:57;;;;;;;12.50;6.00;;;;;;;16.06;59.19;99798.89;107577;1251;111386;-61
2023/10/20 07:37:25;;;;;;;22.40;8.50;;;;;;;16.14;59.07;99812.77;107560;1251;107700;-61
2023/10/20 07:39:54;;;;;;;19.50;7.30;;;;;;;16.19;58.82;99816.65;107587;1253;97812;-63
2023/10/20 07:42:22;;;;;;;13.00;6.70;;;;;;;16.27;58.82;99802.35;107670;1251;98367;-63
2023/10/20 07:44:51;;;;;;;12.90;6.30;;;;;;;16.34;58.16;99793.75;107751;1251;112135;-63
2023/10/20 07:47:19;;;;;;;12.60;5.70;;;;;;;16.44;58.55;99796.24;107561;1253;109248;-62
2023/10/20 07:49:48;;;;;;;15.80;5.70;;;;;;;16.58;58.50;99790.48;107556;1251;107571;-63
2023/10/20 07:52:17;;;;;;;11.20;5.60;;;;;;;16.77;58.46;99786.06;107664;1251;97842;-63
2023/10/20 07:54:45;;;;;;;21.70;6.50;;;;;;;16.95;58.06;99786.17;107618;1251;99056;-62
2023/10/20 07:57:14;;;;;;;11.40;5.40;;;;;;;17.20;58.24;99788.95;107540;1254;112229;-61
2023/10/20 07:59:45;;;;;;;16.80;5.60;;;;;;;17.48;57.97;99791.67;107608;1253;108383;-62
2023/10/20 08:02:13;;;;;;;25.90;11.10;;;;;;;17.74;57.74;99796.73;107511;1254;106659;-62
2023/10/20 08:04:41;;;;;;;17.20;8.40;;;;;;;17.92;57.18;99798.30;107514;1251;97841;-65
2023/10/20 08:07:10;;;;;;;16.20;5.50;;;;;;;17.93;56.76;99803.33;107480;1254;98456;-62
2023/10/20 08:09:40;;;;;;;11.40;4.80;;;;;;;17.91;56.31;99813.58;107538;1251;112252;-62
2023/10/20 08:12:08;;;;;;;15.50;4.80;;;;;;;17.91;56.20;99819.73;107410;1251;109408;-64
2023/10/20 08:14:37;;;;;;;9.40;4.60;;;;;;;17.95;56.11;99821.42;107404;1251;107757;-63
2023/10/20 08:17:07;;;;;;;15.10;5.20;;;;;;;18.03;56.04;99811.31;107640;1251;98569;-62
2023/10/20 08:19:36;;;;;;;12.90;4.70;;;;;;;18.14;55.70;99805.25;107387;1251;97837;-65
2023/10/20 08:22:04;;;;;;;13.10;5.50;;;;;;;18.29;55.46;99811.19;107396;1251;111089;-61
2023/10/20 08:24:32;;;;;;;13.40;4.70;;;;;;;18.43;54.92;99804.13;107475;1251;109633;-63
2023/10/20 08:27:02;;;;;;;14.80;5.40;;;;;;;18.54;54.71;99804.57;107439;1254;107347;-62
2023/10/20 08:29:31;;;;;;;7.70;4.10;;;;;;;18.68;54.59;99803.57;107526;1251;97863;-62
2023/10/20 08:32:00;;;;;;;27.00;13.30;;;;;;;18.91;54.39;99810.06;107524;1254;97941;-64
2023/10/20 08:34:32;;;;;;;12.20;4.70;;;;;;;19.29;53.91;99797.42;107423;1251;112283;-63
2023/10/20 08:37:02;;;;;;;20.50;5.50;;;;;;;19.75;52.68;99790.48;107515;1251;108774;-63
2023/10/20 08:39:31;;;;;;;14.90;5.20;;;;;;;20.04;51.56;99790.54;107403;1251;108838;-62
2023/10/20 08:42:00;;;;;;;12.50;3.90;;;;;;;20.18;51.81;99793.90;107420;1251;97861;-62
2023/10/20 08:44:30;;;;;;;10.80;4.50;;;;;;;20.28;51.65;99795.29;107501;1254;98440;-62
2023/10/20 08:46:59;;;;;;;19.20;4.80;;;;;;;20.37;51.41;99791.92;107553;1256;110961;-62
2023/10/20 08:49:28;;;;;;;19.30;4.30;;;;;;;20.64;51.50;99789.96;107416;1251;109091;-63
2023/10/20 08:51:58;;;;;;;21.50;4.90;;;;;;;20.82;50.75;99795.94;107505;1254;107511;-63
2023/10/20 08:54:26;;;;;;;21.60;5.10;;;;;;;20.88;49.90;99795.90;107633;1256;97886;-62
2023/10/20 08:56:54;;;;;;;12.60;5.00;;;;;;;20.86;49.69;99799.61;107411;1253;98440;-62
2023/10/20 08:59:23;;;;;;;10.90;4.00;;;;;;;20.87;49.62;99795.16;107589;1254;112525;-63
2023/10/20 09:01:56;;;;;;;17.70;4.80;;;;;;;20.88;49.75;99792.36;107672;1251;110168;-62
2023/10/20 09:04:26;;;;;;;18.30;4.60;;;;;;;20.97;49.68;99796.27;107572;1251;106702;-63
2023/10/20 09:06:55;;;;;;;15.90;5.10;;;;;;;21.06;49.37;99793.68;107582;1251;97836;-62
2023/10/20 09:09:23;;;;;;;13.90;5.30;;;;;;;21.13;49.26;99790.55;107654;1251;98447;-62
2023/10/20 09:11:53;;;;;;;11.60;4.30;;;;;;;21.20;48.57;99791.01;107646;1251;111693;-62
2023/10/20 09:14:24;;;;;;;16.50;5.80;;;;;;;21.30;48.45;99791.16;107573;1251;109832;-63
2023/10/20 09:16:57;;;;;;;15.00;5.10;;;;;;;21.40;48.40;99789.64;107612;1251;109010;-62
2023/10/20 09:19:25;;;;;;;13.80;5.40;;;;;;;21.43;47.70;99785.02;107433;1251;97843;-62
2023/10/20 09:21:57;;;;;;;16.00;6.40;;;;;;;21.41;47.56;99779.83;107579;1251;97846;-64
2023/10/20 09:24:34;;;;;;;19.70;7.80;;;;;;;21.41;47.66;99781.25;107500;1251;111216;-64
2023/10/20 09:27:03;;;;;;;14.50;5.60;;;;;;;21.45;47.65;99780.96;107630;1251;109611;-64
2023/10/20 09:29:34;;;;;;;14.30;5.40;;;;;;;21.48;47.34;99784.70;107693;1250;108937;-63
2023/10/20 09:32:04;;;;;;;18.00;6.30;;;;;;;21.57;47.76;99786.77;107560;1251;97825;-62
2023/10/20 09:34:35;;;;;;;17.10;5.80;;;;;;;22.02;47.95;99790.71;107621;1251;97930;-64
2023/10/20 09:37:04;;;;;;;18.00;6.60;;;;;;;22.18;47.54;99782.90;107626;1251;112150;-63
2023/10/20 09:39:39;;;;;;;16.60;6.90;;;;;;;22.20;47.18;99779.75;107587;1251;108637;-63
2023/10/20 09:42:12;;;;;;;19.10;6.90;;;;;;;22.14;47.01;99782.09;107590;1255;107910;-64
2023/10/20 09:44:47;;;;;;;18.00;7.00;;;;;;;22.03;47.04;99784.34;107603;1252;98003;-63
2023/10/20 09:47:24;;;;;;;19.90;7.10;;;;;;;21.96;47.13;99781.38;107648;1253;98501;-62
2023/10/20 09:49:54;;;;;;;20.50;6.50;;;;;;;21.93;47.39;99784.80;107660;1251;111546;-61
2023/10/20 09:52:22;;;;;;;22.40;5.70;;;;;;;21.92;47.73;99777.66;107654;1251;108416;-62
2023/10/20 09:54:52;;;;;;;18.30;5.10;;;;;;;21.93;47.35;99768.52;107651;1251;108197;-62
2023/10/20 09:57:22;;;;;;;19.30;5.10;;;;;;;21.89;47.05;99774.59;107669;1250;97822;-62
2023/10/20 09:59:54;;;;;;;19.90;6.10;;;;;;;21.82;47.39;99779.33;107584;1251;97748;-63
2023/10/20 10:02:27;;;;;;;19.80;5.00;;;;;;;21.73;47.60;99779.81;107576;1251;110581;-63
2023/10/20 10:04:57;;;;;;;12.10;5.40;;;;;;;21.61;47.67;99774.96;107585;1251;110024;-62
2023/10/20 10:07:32;;;;;;;18.10;5.30;;;;;;;21.49;47.68;99772.77;107622;1251;108360;-63
2023/10/20 10:10:02;;;;;;;19.30;5.30;;;;;;;21.42;47.87;99771.31;107624;1253;97871;-63
2023/10/20 10:12:34;;;;;;;14.30;5.50;;;;;;;21.35;48.11;99769.70;107307;1251;402749;-63
2023/10/20 10:15:12;;;;;;;14.10;5.10;;;;;;;21.25;48.16;99763.05;107612;1252;113026;-63
2023/10/20 10:17:48;;;;;;;25.30;5.40;;;;;;;21.20;48.34;99759.16;107635;1251;109219;-63
2023/10/20 10:20:25;;;;;;;15.80;6.10;;;;;;;21.13;48.38;99758.87;107645;1251;108714;-63
2023/10/20 10:23:00;;;;;;;12.90;5.80;;;;;;;21.08;48.41;99766.46;107663;1251;97931;-62
2023/10/20 10:26:11;;;;;;;11.60;6.10;;;;;;;21.04;48.19;99764.63;107598;1251;97824;-63
2023/10/20 10:28:48;;;;;;;12.00;5.00;;;;;;;20.99;48.50;99767.67;107367;1253;111939;-62
2023/10/20 10:31:17;;;;;;;18.20;5.40;;;;;;;21.01;48.67;99765.48;107617;1251;110023;-63
2023/10/20 10:33:46;;;;;;;14.50;6.30;;;;;;;21.04;48.43;99764.42;107581;1251;107598;-61
2023/10/20 10:36:15;;;;;;;33.30;6.30;;;;;;;21.12;48.31;99777.48;107570;1253;97826;-62
2023/10/20 10:38:44;;;;;;;16.40;5.90;;;;;;;21.24;48.35;99770.17;107608;1251;98371;-63
2023/10/20 10:41:13;;;;;;;17.10;5.60;;;;;;;21.43;48.15;99766.13;107650;1251;112121;-62
2023/10/20 10:43:42;;;;;;;21.40;6.20;;;;;;;21.65;48.11;99760.89;107649;1254;109640;-63
2023/10/20 10:46:11;;;;;;;22.90;6.10;;;;;;;21.94;48.05;99761.33;107643;1253;108351;-63
2023/10/20 10:48:40;;;;;;;21.90;6.40;;;;;;;22.20;47.63;99759.91;107596;1254;97839;-63
2023/10/20 10:51:09;;;;;;;25.70;6.10;;;;;;;22.35;47.65;99763.67;107628;1253;97826;-63
2023/10/20 10:53:40;;;;;;;13.50;5.50;;;;;;;22.46;47.29;99763.14;107634;1253;110378;-61
2023/10/20 10:56:09;;;;;;;11.80;5.30;;;;;;;22.52;47.00;99767.41;107649;1250;109029;-61
2023/10/20 10:58:38;;;;;;;20.70;5.60;;;;;;;22.56;46.64;99762.41;107583;1251;108164;-62
2023/10/20 11:01:06;;;;;;;16.00;6.50;;;;;;;22.58;46.48;99768.31;107543;1254;97881;-62
2023/10/20 11:03:35;;;;;;;12.50;5.70;;;;;;;22.63;46.56;99764.70;107603;1251;97925;-62
2023/10/20 11:06:04;;;;;;;18.40;6.70;;;;;;;22.73;46.29;99762.54;107628;1251;111239;-62
2023/10/20 11:08:32;;;;;;;16.40;6.10;;;;;;;23.12;45.68;99764.44;107617;1254;109827;-62
2023/10/20 11:11:02;;;;;;;22.40;6.60;;;;;;;23.54;45.59;99767.54;107652;1250;108288;-61
2023/10/20 11:13:32;;;;;;;20.30;5.90;;;;;;;23.77;45.47;99772.61;107563;1249;97812;-61
2023/10/20 11:16:01;;;;;;;19.40;6.00;;;;;;;23.87;44.66;99771.70;107593;1249;98460;-62
2023/10/20 11:18:29;;;;;;;17.80;5.40;;;;;;;24.19;44.26;99771.52;107662;1253;111161;-62
2023/10/20 11:20:57;;;;;;;11.90;5.00;;;;;;;24.85;43.92;99767.13;107676;1251;109912;-62
2023/10/20 11:23:29;;;;;;;11.20;4.70;;;;;;;25.41;42.79;99760.84;107583;1251;106965;-63
2023/10/20 11:25:58;;;;;;;12.40;5.10;;;;;;;25.95;40.34;99753.90;107631;1253;97750;-61
2023/10/20 11:28:26;;;;;;;11.40;4.30;;;;;;;26.35;40.59;99757.95;107616;1251;98125;-62
2023/10/20 11:30:57;;;;;;;16.10;4.90;;;;;;;26.63;39.64;99755.58;107515;1251;110692;-63
2023/10/20 11:33:25;;;;;;;11.80;4.70;;;;;;;26.80;39.02;99761.85;107620;1251;108898;-62
2023/10/20 11:35:56;;;;;;;15.50;5.60;;;;;;;27.02;39.28;99761.61;107632;1251;107845;-62
2023/10/20 11:38:27;;;;;;;13.50;4.90;;;;;;;27.39;38.87;99759.44;107601;1251;97868;-63
2023/10/20 11:40:55;;;;;;;12.40;5.20;;;;;;;27.66;37.81;99754.91;107454;1253;97864;-63
2023/10/20 11:43:24;;;;;;;10.10;4.60;;;;;;;27.85;36.40;99759.58;107669;1253;111527;-63
2023/10/20 11:45:53;;;;;;;15.50;5.50;;;;;;;28.06;36.00;99763.84;107709;1251;109072;-62
2023/10/20 11:48:23;;;;;;;18.70;5.40;;;;;;;28.20;35.36;99767.27;107584;1251;107649;-63
2023/10/20 11:50:51;;;;;;;19.60;6.30;;;;;;;28.26;34.80;99765.16;107544;1249;97819;-62
2023/10/20 11:53:20;;;;;;;21.40;6.40;;;;;;;28.12;35.52;99763.52;107628;1251;97864;-63
2023/10/20 11:55:49;;;;;;;22.90;6.50;;;;;;;27.96;35.99;99763.98;107598;1251;112392;-66